Startpagina
METAR-TAF:

METAR-TAF

Vliegvelden :

Mangalore, India

breedte: 12-55N, lengte: 074-53E, hoogte: 102 m

Actueel weer

Dit bericht is 38 minuten geleden gemaakt, om 10:30 UTC
Wind 6 kt uit het westen
Temperatuur 31°C
Vochtigheid 59%
Druk 1009 hPa
Zicht: 8000 m
Weinig wolken op 1500 ft

METAR: VOML 231030Z 27006KT 8000 FEW015 31/22 Q1009 NOSIG

Tijdstip: 16:38 (11:08 UTC)

Verwachting

Dit bericht is 3 uur en het 8 minuten geleden gemaakt, om 08:00 UTC
Verwachting geldig van 23 om 09 UTC tot 23 om 18 UTC
Wind 10 kt uit het westzuidwesten
Zicht: 6000 m
Verspreide wolken op 1000 ft
Verspreide wolken op 1500 ft

TAF: VOML 230800Z 2309/2318 25010KT 6000 SCT010 SCT015

Waarnemingen en weersverwachtingen van meer dan 4000 vliegvelden (METAR en TAF).

De beschikbare stations zijn de gele en rode punten op de kaart.

Ga met uw muis naar het station om de naam te zien.

Klik dan om waarnemingen en weersverwachtingen te zien.

kaart wijzigen: klik op de groene knoppen met een zwart kruis om in te zoomen, op de groene knop met een streepje om uit te zoomen of op de groene pijlen voor aangrenzende kaarten.


METAR-TAF: